HAZ1152 ZLLL-ZUUU
Flight info
| Callsign | HAZ1152 |
|---|---|
| Flight time | 1h 2m |
| Altitude | 31100 |
| Route | IRMUB4Z IRMUB B330 MEXAD MEXAD4C |
| Aircraft | A20N/M-SDE2E3FGHIRWXY/LB1 |
Departure
| Time | 2026-04-30 00:22 |
|---|---|
| Airport | Lanzhou Zhongchuan International Airport (ZLLL) |
Arrival
| Time | 2026-04-30 01:24 |
|---|---|
| Airport | Chengdu Shuangliu International Airport (ZUUU) |
| Time | Latitude | Longitude | Altitude | Speed | Heading |
|---|---|---|---|---|---|
| 2026-04-29 23:57 | 36.52532 | 103.63806 | 6402 ft | 0 kts | 292° |
| 2026-04-30 00:10 | 36.52530 | 103.63813 | 6404 ft | 2 kts | 292° |
| 2026-04-30 00:10 | 36.52525 | 103.63831 | 6404 ft | 2 kts | 292° |
| 2026-04-30 00:11 | 36.52519 | 103.63847 | 6404 ft | 2 kts | 292° |
| 2026-04-30 00:11 | 36.52512 | 103.63864 | 6405 ft | 2 kts | 312° |
| 2026-04-30 00:11 | 36.52501 | 103.63877 | 6404 ft | 2 kts | 329° |
| 2026-04-30 00:11 | 36.52487 | 103.63885 | 6404 ft | 2 kts | 347° |
| 2026-04-30 00:12 | 36.52472 | 103.63887 | 6404 ft | 2 kts | 5° |
| 2026-04-30 00:12 | 36.52459 | 103.63884 | 6404 ft | 0 kts | 20° |
| 2026-04-30 00:12 | 36.52453 | 103.63881 | 6404 ft | 0 kts | 22° |
| 2026-04-30 00:12 | 36.52453 | 103.63880 | 6404 ft | 0 kts | 22° |
| 2026-04-30 00:16 | 36.52454 | 103.63881 | 6404 ft | 0 kts | 22° |
| 2026-04-30 00:16 | 36.52468 | 103.63889 | 6404 ft | 4 kts | 22° |
| 2026-04-30 00:16 | 36.52515 | 103.63912 | 6404 ft | 12 kts | 22° |
| 2026-04-30 00:16 | 36.52618 | 103.63964 | 6405 ft | 18 kts | 22° |
| 2026-04-30 00:17 | 36.52705 | 103.64058 | 6405 ft | 17 kts | 86° |
| 2026-04-30 00:17 | 36.52712 | 103.64207 | 6405 ft | 17 kts | 87° |
| 2026-04-30 00:17 | 36.52779 | 103.64292 | 6405 ft | 15 kts | 359° |
| 2026-04-30 00:17 | 36.52889 | 103.64285 | 6405 ft | 16 kts | 357° |
| 2026-04-30 00:18 | 36.53004 | 103.64274 | 6405 ft | 16 kts | 354° |
| 2026-04-30 00:18 | 36.53114 | 103.64268 | 6406 ft | 15 kts | 359° |
| 2026-04-30 00:18 | 36.53228 | 103.64264 | 6406 ft | 16 kts | 357° |
| 2026-04-30 00:18 | 36.53350 | 103.64256 | 6406 ft | 17 kts | 357° |
| 2026-04-30 00:19 | 36.53473 | 103.64248 | 6406 ft | 17 kts | 357° |
| 2026-04-30 00:19 | 36.53593 | 103.64240 | 6406 ft | 17 kts | 357° |
| 2026-04-30 00:19 | 36.53717 | 103.64232 | 6407 ft | 18 kts | 356° |
| 2026-04-30 00:19 | 36.53846 | 103.64223 | 6407 ft | 18 kts | 357° |
| 2026-04-30 00:20 | 36.53949 | 103.64274 | 6407 ft | 17 kts | 81° |
| 2026-04-30 00:20 | 36.53921 | 103.64407 | 6407 ft | 16 kts | 151° |
| 2026-04-30 00:20 | 36.53849 | 103.64423 | 6407 ft | 0 kts | 177° |
| 2026-04-30 00:20 | 36.53776 | 103.64428 | 6407 ft | 39 kts | 177° |
| 2026-04-30 00:21 | 36.53274 | 103.64461 | 6406 ft | 104 kts | 177° |
| 2026-04-30 00:21 | 36.52345 | 103.64520 | 6405 ft | 159 kts | 177° |
| 2026-04-30 00:21 | 36.51098 | 103.64603 | 6517 ft | 193 kts | 177° |
| 2026-04-30 00:21 | 36.49702 | 103.64709 | 6825 ft | 209 kts | 171° |
| 2026-04-30 00:22 | 36.48289 | 103.65343 | 7180 ft | 227 kts | 148° |
| 2026-04-30 00:22 | 36.46962 | 103.66543 | 7525 ft | 248 kts | 142° |
| 2026-04-30 00:22 | 36.45552 | 103.67915 | 7935 ft | 267 kts | 142° |
| 2026-04-30 00:22 | 36.44094 | 103.69282 | 8761 ft | 262 kts | 143° |
| 2026-04-30 00:23 | 36.42599 | 103.70650 | 9186 ft | 272 kts | 143° |
| 2026-04-30 00:23 | 36.41062 | 103.72036 | 9687 ft | 277 kts | 143° |
| 2026-04-30 00:23 | 36.39508 | 103.73432 | 10267 ft | 279 kts | 143° |
| 2026-04-30 00:23 | 36.37983 | 103.74925 | 10835 ft | 281 kts | 138° |
| 2026-04-30 00:24 | 36.36492 | 103.76562 | 11152 ft | 294 kts | 137° |
| 2026-04-30 00:24 | 36.34940 | 103.78296 | 11407 ft | 307 kts | 137° |
| 2026-04-30 00:24 | 36.33313 | 103.80112 | 11667 ft | 321 kts | 137° |
| 2026-04-30 00:24 | 36.31600 | 103.82018 | 11930 ft | 335 kts | 137° |
| 2026-04-30 00:25 | 36.29824 | 103.83990 | 12195 ft | 350 kts | 137° |
| 2026-04-30 00:25 | 36.27980 | 103.86034 | 12436 ft | 364 kts | 137° |
| 2026-04-30 00:25 | 36.26076 | 103.88143 | 12674 ft | 376 kts | 138° |
| 2026-04-30 00:25 | 36.24107 | 103.90321 | 13086 ft | 382 kts | 138° |
| 2026-04-30 00:26 | 36.22120 | 103.92518 | 13588 ft | 384 kts | 138° |
| 2026-04-30 00:26 | 36.20112 | 103.94736 | 14083 ft | 387 kts | 139° |
| 2026-04-30 00:26 | 36.18097 | 103.96959 | 14544 ft | 391 kts | 139° |
| 2026-04-30 00:26 | 36.16057 | 103.99210 | 14985 ft | 395 kts | 139° |
| 2026-04-30 00:27 | 36.13993 | 104.01485 | 15414 ft | 400 kts | 139° |
| 2026-04-30 00:27 | 36.11921 | 104.03764 | 15837 ft | 405 kts | 139° |
| 2026-04-30 00:27 | 36.09799 | 104.06094 | 16272 ft | 408 kts | 139° |
| 2026-04-30 00:27 | 36.07677 | 104.08421 | 16716 ft | 412 kts | 139° |
| 2026-04-30 00:28 | 36.05518 | 104.10789 | 17159 ft | 416 kts | 139° |
| 2026-04-30 00:28 | 36.03345 | 104.13174 | 17594 ft | 419 kts | 138° |
| 2026-04-30 00:28 | 36.01148 | 104.15588 | 18021 ft | 424 kts | 138° |
| 2026-04-30 00:28 | 35.98953 | 104.17995 | 18449 ft | 427 kts | 138° |
| 2026-04-30 00:29 | 35.96722 | 104.20440 | 18869 ft | 432 kts | 138° |
| 2026-04-30 00:29 | 35.94457 | 104.22918 | 19302 ft | 436 kts | 138° |
| 2026-04-30 00:29 | 35.92178 | 104.25416 | 19741 ft | 440 kts | 138° |
| 2026-04-30 00:29 | 35.89902 | 104.27902 | 20174 ft | 443 kts | 138° |
| 2026-04-30 00:30 | 35.87570 | 104.30448 | 20602 ft | 447 kts | 138° |
| 2026-04-30 00:30 | 35.85173 | 104.32900 | 21011 ft | 451 kts | 146° |
| 2026-04-30 00:30 | 35.82390 | 104.34640 | 21415 ft | 452 kts | 162° |
| 2026-04-30 00:30 | 35.79314 | 104.35444 | 21853 ft | 450 kts | 178° |
| 2026-04-30 00:31 | 35.76204 | 104.35550 | 22305 ft | 451 kts | 182° |
| 2026-04-30 00:31 | 35.73048 | 104.35550 | 22720 ft | 454 kts | 182° |
| 2026-04-30 00:31 | 35.69900 | 104.35547 | 23124 ft | 458 kts | 182° |
| 2026-04-30 00:31 | 35.66695 | 104.35562 | 23536 ft | 461 kts | 182° |
| 2026-04-30 00:32 | 35.63480 | 104.35594 | 23940 ft | 464 kts | 182° |
| 2026-04-30 00:32 | 35.60230 | 104.35638 | 24350 ft | 467 kts | 182° |
| 2026-04-30 00:32 | 35.57007 | 104.35686 | 24745 ft | 470 kts | 182° |
| 2026-04-30 00:32 | 35.53715 | 104.35738 | 25138 ft | 472 kts | 182° |
| 2026-04-30 00:33 | 35.50413 | 104.35791 | 25522 ft | 475 kts | 182° |
| 2026-04-30 00:33 | 35.47134 | 104.35846 | 25889 ft | 478 kts | 182° |
| 2026-04-30 00:33 | 35.43775 | 104.35904 | 26255 ft | 481 kts | 182° |
| 2026-04-30 00:33 | 35.40444 | 104.35961 | 26609 ft | 484 kts | 183° |
| 2026-04-30 00:34 | 35.37063 | 104.36017 | 26951 ft | 487 kts | 183° |
| 2026-04-30 00:34 | 35.33648 | 104.36073 | 27272 ft | 490 kts | 183° |
| 2026-04-30 00:34 | 35.30221 | 104.36128 | 27580 ft | 492 kts | 183° |
| 2026-04-30 00:34 | 35.26822 | 104.36182 | 27877 ft | 495 kts | 183° |
| 2026-04-30 00:35 | 35.23366 | 104.36238 | 28226 ft | 494 kts | 183° |
| 2026-04-30 00:35 | 35.19921 | 104.36295 | 28603 ft | 494 kts | 183° |
| 2026-04-30 00:35 | 35.16517 | 104.36350 | 28987 ft | 494 kts | 183° |
| 2026-04-30 00:35 | 35.13084 | 104.36405 | 29474 ft | 491 kts | 184° |
| 2026-04-30 00:36 | 35.09675 | 104.36461 | 29975 ft | 488 kts | 184° |
| 2026-04-30 00:36 | 35.06306 | 104.36514 | 30352 ft | 489 kts | 184° |
| 2026-04-30 00:36 | 35.02876 | 104.36567 | 30682 ft | 492 kts | 184° |
| 2026-04-30 00:36 | 34.99469 | 104.36619 | 31023 ft | 494 kts | 184° |
| 2026-04-30 00:37 | 34.96019 | 104.36672 | 31273 ft | 496 kts | 184° |
| 2026-04-30 00:37 | 34.89117 | 104.36782 | 31335 ft | 495 kts | 184° |
| 2026-04-30 00:38 | 34.82232 | 104.36891 | 31372 ft | 495 kts | 185° |
| 2026-04-30 00:38 | 34.75309 | 104.36997 | 31323 ft | 495 kts | 185° |
| 2026-04-30 00:39 | 34.68411 | 104.37103 | 31324 ft | 495 kts | 185° |
| 2026-04-30 00:39 | 34.61521 | 104.37211 | 31346 ft | 496 kts | 185° |
| 2026-04-30 00:40 | 34.54641 | 104.37318 | 31360 ft | 496 kts | 185° |
| 2026-04-30 00:40 | 34.47714 | 104.37425 | 31377 ft | 496 kts | 185° |
| 2026-04-30 00:41 | 34.40834 | 104.37532 | 31384 ft | 496 kts | 185° |
| 2026-04-30 00:41 | 34.33917 | 104.37640 | 31385 ft | 496 kts | 185° |
| 2026-04-30 00:42 | 34.27028 | 104.37746 | 31387 ft | 495 kts | 185° |
| 2026-04-30 00:42 | 34.20124 | 104.37853 | 31387 ft | 496 kts | 185° |
| 2026-04-30 00:43 | 34.13241 | 104.37959 | 31380 ft | 496 kts | 185° |
| 2026-04-30 00:43 | 34.06360 | 104.38066 | 31370 ft | 495 kts | 185° |
| 2026-04-30 00:44 | 33.99435 | 104.38173 | 31359 ft | 495 kts | 185° |
| 2026-04-30 00:44 | 33.92544 | 104.38277 | 31334 ft | 495 kts | 185° |
| 2026-04-30 00:45 | 33.85690 | 104.38383 | 31304 ft | 495 kts | 185° |
| 2026-04-30 00:45 | 33.78792 | 104.38488 | 31287 ft | 495 kts | 185° |
| 2026-04-30 00:46 | 33.71891 | 104.38591 | 31275 ft | 495 kts | 185° |
| 2026-04-30 00:46 | 33.64995 | 104.38936 | 31270 ft | 500 kts | 178° |
| 2026-04-30 00:47 | 33.58230 | 104.40889 | 31270 ft | 506 kts | 163° |
| 2026-04-30 00:47 | 33.51882 | 104.44650 | 31192 ft | 508 kts | 151° |
| 2026-04-30 00:47 | 33.48896 | 104.46851 | 31090 ft | 508 kts | 150° |
| 2026-04-30 00:48 | 33.45890 | 104.49084 | 30957 ft | 507 kts | 150° |
| 2026-04-30 00:48 | 33.42832 | 104.51187 | 30773 ft | 505 kts | 156° |
| 2026-04-30 00:48 | 33.39652 | 104.52896 | 30610 ft | 503 kts | 162° |
| 2026-04-30 00:48 | 33.36332 | 104.54205 | 30455 ft | 501 kts | 169° |
| 2026-04-30 00:49 | 33.32953 | 104.55087 | 30305 ft | 499 kts | 175° |
| 2026-04-30 00:49 | 33.29480 | 104.55559 | 30156 ft | 496 kts | 181° |
| 2026-04-30 00:49 | 33.26045 | 104.55782 | 30066 ft | 497 kts | 182° |
| 2026-04-30 00:50 | 33.19118 | 104.56146 | 29993 ft | 498 kts | 182° |
| 2026-04-30 00:50 | 33.12193 | 104.56551 | 30046 ft | 499 kts | 182° |
| 2026-04-30 00:51 | 33.05230 | 104.56987 | 30126 ft | 498 kts | 181° |
| 2026-04-30 00:51 | 33.01797 | 104.57205 | 30244 ft | 498 kts | 181° |
| 2026-04-30 00:51 | 32.98314 | 104.57427 | 30370 ft | 498 kts | 181° |
| 2026-04-30 00:52 | 32.91382 | 104.57866 | 30244 ft | 498 kts | 182° |
| 2026-04-30 00:52 | 32.84480 | 104.58299 | 30102 ft | 497 kts | 182° |
| 2026-04-30 00:53 | 32.77571 | 104.58735 | 30012 ft | 497 kts | 182° |
| 2026-04-30 00:53 | 32.70699 | 104.59095 | 29941 ft | 496 kts | 183° |
| 2026-04-30 00:54 | 32.63773 | 104.59383 | 29952 ft | 496 kts | 182° |
| 2026-04-30 00:54 | 32.56895 | 104.59684 | 30002 ft | 496 kts | 182° |
| 2026-04-30 00:55 | 32.49949 | 104.60003 | 30042 ft | 496 kts | 182° |
| 2026-04-30 00:55 | 32.39604 | 104.60483 | 30159 ft | 495 kts | 182° |
| 2026-04-30 00:56 | 32.36188 | 104.60665 | 30297 ft | 495 kts | 182° |
| 2026-04-30 00:56 | 32.32767 | 104.60858 | 30480 ft | 495 kts | 182° |
| 2026-04-30 00:56 | 32.29324 | 104.61052 | 30661 ft | 494 kts | 182° |
| 2026-04-30 00:56 | 32.25858 | 104.61247 | 30827 ft | 494 kts | 182° |
| 2026-04-30 00:57 | 32.22435 | 104.61435 | 30960 ft | 494 kts | 182° |
| 2026-04-30 00:57 | 32.19030 | 104.61620 | 31048 ft | 493 kts | 182° |
| 2026-04-30 00:57 | 32.12151 | 104.61995 | 31114 ft | 493 kts | 182° |
| 2026-04-30 00:58 | 32.05326 | 104.62364 | 31095 ft | 492 kts | 183° |
| 2026-04-30 00:58 | 31.98451 | 104.62739 | 31066 ft | 492 kts | 182° |
| 2026-04-30 00:59 | 31.91633 | 104.63109 | 31107 ft | 492 kts | 183° |
| 2026-04-30 00:59 | 31.84796 | 104.63476 | 31171 ft | 491 kts | 183° |
| 2026-04-30 01:00 | 31.77920 | 104.63847 | 31008 ft | 491 kts | 182° |
| 2026-04-30 01:00 | 31.74514 | 104.64050 | 30810 ft | 489 kts | 182° |
| 2026-04-30 01:00 | 31.71122 | 104.64265 | 30611 ft | 487 kts | 182° |
| 2026-04-30 01:01 | 31.67787 | 104.64478 | 30414 ft | 485 kts | 182° |
| 2026-04-30 01:01 | 31.64389 | 104.64693 | 30153 ft | 482 kts | 182° |
| 2026-04-30 01:01 | 31.61048 | 104.64900 | 29887 ft | 481 kts | 182° |
| 2026-04-30 01:01 | 31.57745 | 104.65104 | 29621 ft | 480 kts | 182° |
| 2026-04-30 01:02 | 31.54378 | 104.65311 | 29352 ft | 480 kts | 182° |
| 2026-04-30 01:02 | 31.51046 | 104.65518 | 29084 ft | 480 kts | 182° |
| 2026-04-30 01:02 | 31.47728 | 104.65726 | 28822 ft | 481 kts | 182° |
| 2026-04-30 01:02 | 31.44363 | 104.65918 | 28566 ft | 479 kts | 185° |
| 2026-04-30 01:03 | 31.41077 | 104.65705 | 28313 ft | 473 kts | 193° |
| 2026-04-30 01:03 | 31.37890 | 104.64945 | 28054 ft | 467 kts | 201° |
| 2026-04-30 01:03 | 31.34832 | 104.63658 | 27790 ft | 461 kts | 209° |
| 2026-04-30 01:03 | 31.31919 | 104.62118 | 27370 ft | 462 kts | 210° |
| 2026-04-30 01:04 | 31.29010 | 104.60525 | 26708 ft | 463 kts | 211° |
| 2026-04-30 01:04 | 31.26098 | 104.58929 | 26039 ft | 460 kts | 210° |
| 2026-04-30 01:04 | 31.23200 | 104.57352 | 25479 ft | 454 kts | 210° |
| 2026-04-30 01:04 | 31.20331 | 104.55801 | 24913 ft | 449 kts | 210° |
| 2026-04-30 01:05 | 31.17522 | 104.54288 | 24357 ft | 445 kts | 210° |
| 2026-04-30 01:05 | 31.14703 | 104.52773 | 23777 ft | 441 kts | 210° |
| 2026-04-30 01:05 | 31.11949 | 104.51293 | 23206 ft | 437 kts | 210° |
| 2026-04-30 01:05 | 31.09191 | 104.49815 | 22633 ft | 433 kts | 209° |
| 2026-04-30 01:06 | 31.06487 | 104.48368 | 22070 ft | 429 kts | 209° |
| 2026-04-30 01:06 | 31.03737 | 104.46973 | 21518 ft | 427 kts | 207° |
| 2026-04-30 01:06 | 31.01019 | 104.45665 | 20963 ft | 424 kts | 207° |
| 2026-04-30 01:06 | 30.98275 | 104.44348 | 20391 ft | 421 kts | 206° |
| 2026-04-30 01:07 | 30.95562 | 104.43047 | 19820 ft | 419 kts | 206° |
| 2026-04-30 01:07 | 30.92881 | 104.41760 | 19227 ft | 416 kts | 206° |
| 2026-04-30 01:07 | 30.90229 | 104.40489 | 18639 ft | 413 kts | 206° |
| 2026-04-30 01:07 | 30.87567 | 104.39213 | 18048 ft | 409 kts | 206° |
| 2026-04-30 01:08 | 30.84941 | 104.37967 | 17465 ft | 406 kts | 205° |
| 2026-04-30 01:08 | 30.82330 | 104.36744 | 16918 ft | 402 kts | 205° |
| 2026-04-30 01:08 | 30.79729 | 104.35531 | 16362 ft | 400 kts | 205° |
| 2026-04-30 01:08 | 30.77130 | 104.34320 | 15799 ft | 398 kts | 204° |
| 2026-04-30 01:09 | 30.74559 | 104.33122 | 15239 ft | 396 kts | 204° |
| 2026-04-30 01:09 | 30.72025 | 104.31939 | 14685 ft | 394 kts | 204° |
| 2026-04-30 01:09 | 30.69472 | 104.30746 | 14117 ft | 389 kts | 204° |
| 2026-04-30 01:09 | 30.67000 | 104.29529 | 13539 ft | 385 kts | 209° |
| 2026-04-30 01:10 | 30.64952 | 104.27615 | 13011 ft | 375 kts | 234° |
| 2026-04-30 01:10 | 30.63891 | 104.24973 | 12841 ft | 354 kts | 259° |
| 2026-04-30 01:10 | 30.63821 | 104.22226 | 12687 ft | 338 kts | 279° |
| 2026-04-30 01:10 | 30.64533 | 104.19679 | 12555 ft | 324 kts | 292° |
| 2026-04-30 01:11 | 30.65410 | 104.17363 | 12431 ft | 311 kts | 294° |
| 2026-04-30 01:11 | 30.66658 | 104.15367 | 12282 ft | 302 kts | 321° |
| 2026-04-30 01:11 | 30.68550 | 104.14408 | 12181 ft | 293 kts | 351° |
| 2026-04-30 01:11 | 30.70528 | 104.14605 | 12094 ft | 282 kts | 17° |
| 2026-04-30 01:12 | 30.72306 | 104.15453 | 12041 ft | 268 kts | 22° |
| 2026-04-30 01:12 | 30.73992 | 104.16313 | 11995 ft | 263 kts | 22° |
| 2026-04-30 01:12 | 30.75672 | 104.17147 | 11928 ft | 264 kts | 21° |
| 2026-04-30 01:12 | 30.77380 | 104.17969 | 11616 ft | 265 kts | 20° |
| 2026-04-30 01:13 | 30.79099 | 104.18786 | 11300 ft | 264 kts | 20° |
| 2026-04-30 01:13 | 30.80797 | 104.19589 | 10991 ft | 263 kts | 20° |
| 2026-04-30 01:13 | 30.82481 | 104.20383 | 10688 ft | 261 kts | 20° |
| 2026-04-30 01:13 | 30.84174 | 104.21179 | 10385 ft | 260 kts | 20° |
| 2026-04-30 01:14 | 30.85845 | 104.21966 | 10051 ft | 259 kts | 21° |
| 2026-04-30 01:14 | 30.87514 | 104.22753 | 9710 ft | 259 kts | 21° |
| 2026-04-30 01:14 | 30.89202 | 104.23550 | 9386 ft | 259 kts | 21° |
| 2026-04-30 01:14 | 30.90901 | 104.24190 | 9027 ft | 258 kts | 3° |
| 2026-04-30 01:15 | 30.92610 | 104.23779 | 8681 ft | 253 kts | 326° |
| 2026-04-30 01:15 | 30.93755 | 104.22266 | 8375 ft | 246 kts | 292° |
| 2026-04-30 01:15 | 30.94291 | 104.20403 | 8102 ft | 243 kts | 285° |
| 2026-04-30 01:15 | 30.94766 | 104.18489 | 7808 ft | 242 kts | 287° |
| 2026-04-30 01:16 | 30.95295 | 104.16633 | 7518 ft | 240 kts | 289° |
| 2026-04-30 01:16 | 30.95825 | 104.14814 | 7211 ft | 240 kts | 281° |
| 2026-04-30 01:16 | 30.95680 | 104.12917 | 6878 ft | 237 kts | 241° |
| 2026-04-30 01:16 | 30.94537 | 104.11589 | 6590 ft | 234 kts | 203° |
| 2026-04-30 01:17 | 30.93004 | 104.10978 | 6341 ft | 233 kts | 198° |
| 2026-04-30 01:17 | 30.91479 | 104.10346 | 6065 ft | 232 kts | 200° |
| 2026-04-30 01:17 | 30.89979 | 104.09669 | 5790 ft | 230 kts | 201° |
| 2026-04-30 01:17 | 30.88499 | 104.08986 | 5518 ft | 227 kts | 201° |
| 2026-04-30 01:18 | 30.87045 | 104.08309 | 5250 ft | 225 kts | 201° |
| 2026-04-30 01:18 | 30.85584 | 104.07627 | 4982 ft | 223 kts | 201° |
| 2026-04-30 01:18 | 30.84140 | 104.06952 | 4717 ft | 220 kts | 201° |
| 2026-04-30 01:18 | 30.82738 | 104.06297 | 4461 ft | 218 kts | 201° |
| 2026-04-30 01:19 | 30.81335 | 104.05642 | 4204 ft | 216 kts | 202° |
| 2026-04-30 01:19 | 30.79948 | 104.04995 | 3981 ft | 211 kts | 201° |
| 2026-04-30 01:19 | 30.78600 | 104.04366 | 3945 ft | 208 kts | 201° |
| 2026-04-30 01:19 | 30.77262 | 104.03742 | 3945 ft | 208 kts | 201° |
| 2026-04-30 01:20 | 30.75914 | 104.03113 | 3943 ft | 207 kts | 201° |
| 2026-04-30 01:20 | 30.74558 | 104.02481 | 3934 ft | 207 kts | 201° |
| 2026-04-30 01:20 | 30.73231 | 104.01863 | 3961 ft | 203 kts | 201° |
| 2026-04-30 01:20 | 30.71975 | 104.01277 | 3971 ft | 183 kts | 201° |
| 2026-04-30 01:21 | 30.70870 | 104.00761 | 3928 ft | 160 kts | 201° |
| 2026-04-30 01:21 | 30.69872 | 104.00297 | 3861 ft | 148 kts | 200° |
| 2026-04-30 01:21 | 30.68926 | 103.99858 | 3678 ft | 144 kts | 200° |
| 2026-04-30 01:21 | 30.67998 | 103.99427 | 3486 ft | 143 kts | 200° |
| 2026-04-30 01:22 | 30.67082 | 103.99000 | 3299 ft | 142 kts | 200° |
| 2026-04-30 01:22 | 30.66152 | 103.98568 | 3107 ft | 142 kts | 200° |
| 2026-04-30 01:22 | 30.65238 | 103.98141 | 2919 ft | 141 kts | 200° |
| 2026-04-30 01:22 | 30.64301 | 103.97704 | 2741 ft | 146 kts | 201° |
| 2026-04-30 01:23 | 30.63370 | 103.97266 | 2538 ft | 143 kts | 201° |
| 2026-04-30 01:23 | 30.62442 | 103.96835 | 2344 ft | 142 kts | 201° |
| 2026-04-30 01:23 | 30.61524 | 103.96415 | 2148 ft | 144 kts | 202° |
| 2026-04-30 01:23 | 30.60591 | 103.95980 | 1961 ft | 145 kts | 202° |
| 2026-04-30 01:24 | 30.59644 | 103.95533 | 1792 ft | 146 kts | 202° |
| 2026-04-30 01:24 | 30.58727 | 103.95105 | 1691 ft | 132 kts | 202° |
| 2026-04-30 01:24 | 30.58014 | 103.94775 | 1690 ft | 84 kts | 202° |
| 2026-04-30 01:24 | 30.57667 | 103.94619 | 1690 ft | 23 kts | 195° |
| 2026-04-30 01:25 | 30.57525 | 103.94603 | 1690 ft | 20 kts | 178° |
| 2026-04-30 01:25 | 30.57388 | 103.94623 | 1690 ft | 19 kts | 163° |
| 2026-04-30 01:25 | 30.57311 | 103.94733 | 1690 ft | 18 kts | 109° |
| 2026-04-30 01:25 | 30.57266 | 103.94871 | 1690 ft | 18 kts | 112° |
| 2026-04-30 01:26 | 30.57225 | 103.94990 | 1690 ft | 15 kts | 111° |
| 2026-04-30 01:26 | 30.57186 | 103.95089 | 1690 ft | 10 kts | 136° |
| 2026-04-30 01:26 | 30.57157 | 103.95149 | 1690 ft | 6 kts | 111° |
| 2026-04-30 01:26 | 30.57153 | 103.95164 | 1690 ft | 0 kts | 111° |